Time;durP1;ratioP1;P1;durP2;ratioP2;P2;SDS_P1;SDS_P2;PMS_P1;PMS_P2;Temp;Humidity;BMP_temperature;BMP_pressure;BME280_temperature;BME280_humidity;BME280_pressure;Samples;Min_cycle;Max_cycle;Signal;HPM_P1;HPM_P2
2022/06/15 00:00:35;;;;;;;0.20;0.20;;;16.50;99.90;16.80;101754.00;;;;5098179;28;20192;-75
2022/06/15 00:03:38;;;;;;;7.20;6.90;;;16.50;99.90;16.60;101746.00;;;;5097792;28;20181;-76
2022/06/15 00:06:31;;;;;;;0.30;0.30;;;16.30;99.90;16.40;101736.00;;;;5098438;28;20180;-76
2022/06/15 00:09:37;;;;;;;0.40;0.40;;;16.20;99.90;16.00;101723.00;;;;5114718;28;20237;-76
2022/06/15 00:12:38;;;;;;;0.30;0.30;;;16.10;99.90;16.10;101729.00;;;;5097476;28;20574;-76
2022/06/15 00:15:29;;;;;;;0.53;0.53;;;16.00;99.90;16.20;101725.00;;;;5114820;28;20182;-76
2022/06/15 00:18:15;;;;;;;0.40;0.40;;;16.00;99.90;16.30;101723.00;;;;5097801;28;20191;-76
2022/06/15 00:21:01;;;;;;;0.30;0.30;;;16.00;99.90;16.40;101738.00;;;;5097969;28;20191;-76
2022/06/15 00:23:46;;;;;;;0.20;0.20;;;16.10;99.90;16.40;101744.00;;;;5114891;28;20200;-76
2022/06/15 00:26:22;;;;;;;0.30;0.30;;;16.10;99.90;16.90;101751.00;;;;5114487;28;20638;-76
2022/06/15 00:29:13;;;;;;;0.20;0.20;;;16.20;99.90;16.60;101759.00;;;;5097593;28;20264;-76
2022/06/15 00:32:14;;;;;;;0.20;0.20;;;16.20;99.90;17.00;101740.00;;;;5097294;28;20637;-75
2022/06/15 00:35:22;;;;;;;0.30;0.30;;;16.20;99.90;16.60;101718.00;;;;5115204;28;20638;-76
2022/06/15 00:38:15;;;;;;;0.30;0.30;;;16.20;99.90;16.80;101737.00;;;;5114275;28;20627;-76
2022/06/15 00:41:03;;;;;;;0.30;0.30;;;16.10;99.90;16.50;101688.00;;;;5097439;28;20726;-76
2022/06/15 00:43:37;;;;;;;0.40;0.40;;;16.00;99.90;16.30;101730.00;;;;5114822;28;20177;-76
2022/06/15 00:46:18;;;;;;;0.30;0.30;;;15.90;99.90;16.50;101727.00;;;;5114736;28;20207;-76
2022/06/15 00:49:06;;;;;;;0.30;0.30;;;15.90;99.90;16.80;101736.00;;;;5114094;28;20195;-76
2022/06/15 00:52:04;;;;;;;0.30;0.30;;;16.20;99.90;16.80;101722.00;;;;5115468;28;20196;-76
2022/06/15 00:54:59;;;;;;;0.30;0.30;;;16.20;99.90;16.00;101716.00;;;;5114125;28;20638;-75
2022/06/15 00:57:34;;;;;;;0.30;0.30;;;15.90;99.90;16.00;101714.00;;;;5096936;28;20190;-76
2022/06/15 01:00:27;;;;;;;0.30;0.30;;;15.80;99.90;16.10;101704.00;;;;5097244;28;20244;-76
2022/06/15 01:03:14;;;;;;;0.30;0.30;;;15.70;99.90;15.70;101689.00;;;;5096851;28;20191;-77
2022/06/15 01:06:05;;;;;;;0.30;0.30;;;15.60;99.90;16.10;101703.00;;;;5097158;28;20180;-76
2022/06/15 01:09:13;;;;;;;0.30;0.30;;;15.60;99.90;16.10;101700.00;;;;5097366;28;20659;-77
2022/06/15 01:12:00;;;;;;;0.40;0.40;;;15.60;99.90;15.90;101672.00;;;;5095242;28;20208;-75
2022/06/15 01:14:39;;;;;;;0.30;0.30;;;15.70;99.90;16.00;101699.00;;;;5115153;28;20184;-76
2022/06/15 01:17:57;;;;;;;0.30;0.30;;;15.60;99.90;15.90;101695.00;;;;5113625;28;20224;-76
2022/06/15 01:20:48;;;;;;;0.30;0.30;;;15.60;99.90;16.00;101677.00;;;;5096885;28;20278;-76
2022/06/15 01:23:45;;;;;;;0.30;0.30;;;15.50;99.90;15.90;101698.00;;;;5113214;28;20191;-76
2022/06/15 01:26:35;;;;;;;0.30;0.30;;;15.50;99.90;15.80;101655.00;;;;5113307;28;20277;-76
2022/06/15 01:29:33;;;;;;;0.30;0.30;;;15.50;99.90;15.80;101688.00;;;;5113426;28;20197;-76
2022/06/15 01:32:51;;;;;;;0.30;0.30;;;15.40;99.90;15.70;101688.00;;;;5114348;28;20208;-76
2022/06/15 01:36:06;;;;;;;0.30;0.30;;;15.40;99.90;15.90;101698.00;;;;5113514;28;20187;-76
2022/06/15 01:38:59;;;;;;;0.30;0.30;;;15.40;99.90;15.50;101678.00;;;;5091972;27;20196;-76
2022/06/15 01:41:47;;;;;;;0.30;0.30;;;15.30;99.90;16.10;101690.00;;;;5096878;28;20180;-76
2022/06/15 01:44:19;;;;;;;0.20;0.20;;;15.50;99.90;15.90;101682.00;;;;5113232;28;20189;-77
2022/06/15 01:46:59;;;;;;;0.30;0.30;;;15.50;99.90;15.80;101674.00;;;;5114269;28;20209;-76
2022/06/15 01:49:57;;;;;;;0.20;0.20;;;15.40;99.90;16.00;101680.00;;;;5096309;28;20534;-76
2022/06/15 01:52:47;;;;;;;0.30;0.30;;;15.50;99.90;16.10;101694.00;;;;5095968;28;20577;-76
2022/06/15 01:55:47;;;;;;;0.23;0.23;;;15.70;99.90;15.90;101676.00;;;;5113185;28;20179;-76
2022/06/15 01:58:36;;;;;;;0.30;0.30;;;15.40;99.90;15.60;101658.00;;;;5096113;28;20184;-76
2022/06/15 02:01:48;;;;;;;0.30;0.30;;;15.30;99.90;15.70;101666.00;;;;5113092;28;20178;-76
2022/06/15 02:04:44;;;;;;;0.30;0.30;;;15.20;99.90;15.60;101670.00;;;;5095879;28;20190;-76
2022/06/15 02:07:51;;;;;;;0.30;0.30;;;15.20;99.90;15.10;101659.00;;;;5095984;28;20572;-76
2022/06/15 02:10:47;;;;;;;0.30;0.30;;;15.00;99.90;15.70;101664.00;;;;5112636;28;20186;-76
2022/06/15 02:13:53;;;;;;;0.30;0.30;;;15.00;99.90;14.90;101658.00;;;;5096111;28;20235;-76
2022/06/15 02:16:53;;;;;;;0.30;0.30;;;15.00;99.90;15.20;101655.00;;;;5112572;28;20533;-76
2022/06/15 02:19:59;;;;;;;0.30;0.30;;;14.80;99.90;16.00;101659.00;;;;5095524;28;20200;-76
2022/06/15 02:22:49;;;;;;;0.83;0.83;;;15.20;99.90;16.30;101665.00;;;;5094989;28;20182;-76
2022/06/15 02:25:53;;;;;;;0.30;0.30;;;15.50;99.90;16.00;101607.00;;;;5095504;28;20581;-76
2022/06/15 02:28:43;;;;;;;0.30;0.30;;;15.60;99.90;15.80;101631.00;;;;5112543;28;20185;-77
2022/06/15 02:31:29;;;;;;;0.70;0.67;;;15.40;99.90;15.10;101634.00;;;;5112692;28;20203;-76
2022/06/15 02:34:30;;;;;;;0.30;0.30;;;15.10;99.90;15.00;101637.00;;;;5095455;28;20526;-76
2022/06/15 02:37:23;;;;;;;0.40;0.40;;;14.80;99.90;15.70;101644.00;;;;5112203;28;20177;-76
2022/06/15 02:40:13;;;;;;;0.30;0.30;;;15.00;99.90;15.70;101605.00;;;;5112562;28;20170;-76
2022/06/15 02:43:04;;;;;;;0.40;0.40;;;15.10;99.90;15.50;101608.00;;;;5112511;28;20176;-76
2022/06/15 02:46:07;;;;;;;0.83;0.83;;;15.10;99.90;15.60;101646.00;;;;5112207;28;20240;-76
2022/06/15 02:48:54;;;;;;;1.90;1.27;;;15.00;99.90;15.60;101637.00;;;;5112591;28;20181;-76
2022/06/15 02:52:36;;;;;;;0.40;0.40;;;15.30;99.90;15.10;101638.00;;;;5111876;28;20250;-76
2022/06/15 02:55:27;;;;;;;0.30;0.30;;;15.10;99.90;15.20;101601.00;;;;4997972;28;20188;-77
2022/06/15 02:58:24;;;;;;;0.30;0.30;;;14.80;99.90;14.70;101631.00;;;;5014341;28;20183;-76
2022/06/15 03:01:27;;;;;;;0.40;0.40;;;14.60;99.90;14.30;101624.00;;;;5030648;28;20192;-76
2022/06/15 03:04:25;;;;;;;0.30;0.30;;;14.40;99.90;14.60;101631.00;;;;4983128;28;20292;-76
2022/06/15 03:07:14;;;;;;;0.30;0.30;;;14.30;99.90;14.30;101600.00;;;;5107874;28;20202;-76
2022/06/15 03:10:15;;;;;;;0.30;0.30;;;14.10;99.90;14.20;101631.00;;;;5112482;28;20175;-76
2022/06/15 03:13:19;;;;;;;0.30;0.30;;;14.10;99.90;14.60;101644.00;;;;5095321;28;20235;-76
2022/06/15 03:16:04;;;;;;;0.63;0.63;;;14.20;99.90;14.60;101642.00;;;;5112161;28;20273;-76
2022/06/15 03:18:48;;;;;;;0.30;0.30;;;14.20;99.90;14.50;101620.00;;;;5113775;28;20269;-77
2022/06/15 03:21:48;;;;;;;0.40;0.40;;;14.20;99.90;14.40;101626.00;;;;5115590;28;20182;-76
2022/06/15 03:24:34;;;;;;;0.30;0.30;;;14.10;99.90;14.30;101626.00;;;;5115985;28;20174;-77
2022/06/15 03:27:23;;;;;;;0.40;0.40;;;14.10;99.90;14.30;101628.00;;;;5116015;28;20189;-76
2022/06/15 03:29:53;;;;;;;0.30;0.30;;;14.00;99.90;14.60;101627.00;;;;5095574;28;20270;-76
2022/06/15 03:32:38;;;;;;;0.40;0.40;;;14.10;99.90;14.90;101638.00;;;;5094951;28;20206;-76
2022/06/15 03:35:17;;;;;;;0.40;0.40;;;14.30;99.90;14.90;101637.00;;;;5078550;28;20179;-77
2022/06/15 03:38:02;;;;;;;0.30;0.30;;;14.30;99.90;15.00;101630.00;;;;5095686;28;20225;-76
2022/06/15 03:40:55;;;;;;;0.30;0.30;;;14.40;99.90;14.90;101592.00;;;;5095350;28;20284;-76
2022/06/15 03:43:28;;;;;;;0.30;0.30;;;14.40;99.90;14.70;101637.00;;;;5078945;28;20641;-76
2022/06/15 03:46:22;;;;;;;0.20;0.20;;;14.40;99.90;14.30;101631.00;;;;5094895;28;20181;-76
2022/06/15 03:49:08;;;;;;;0.27;0.27;;;14.30;99.90;14.20;101640.00;;;;5095043;28;20175;-76
2022/06/15 03:52:10;;;;;;;0.30;0.30;;;14.20;99.90;14.40;101636.00;;;;5077891;28;20197;-76
2022/06/15 03:54:59;;;;;;;0.30;0.30;;;14.30;99.90;14.30;101620.00;;;;5095018;28;20212;-76
2022/06/15 03:58:00;;;;;;;0.30;0.30;;;14.20;99.90;14.80;101606.00;;;;5077903;28;20186;-76
2022/06/15 04:00:50;;;;;;;0.30;0.30;;;14.30;99.90;14.90;101631.00;;;;5077947;28;20190;-76
2022/06/15 04:03:41;;;;;;;0.30;0.30;;;14.40;99.90;14.90;101643.00;;;;5094611;28;20244;-76
2022/06/15 04:06:34;;;;;;;0.30;0.30;;;14.60;99.90;15.30;101626.00;;;;5078132;28;20649;-76
2022/06/15 04:09:21;;;;;;;0.50;0.50;;;14.70;99.90;15.30;101643.00;;;;5094777;28;20274;-76
2022/06/15 04:12:29;;;;;;;0.30;0.30;;;14.80;99.90;15.30;101626.00;;;;5094396;28;20199;-76
2022/06/15 04:15:31;;;;;;;0.30;0.30;;;14.80;99.90;15.50;101599.00;;;;5077625;28;20538;-76
2022/06/15 04:18:32;;;;;;;0.37;0.37;;;14.90;99.90;15.40;101639.00;;;;5077400;28;20629;-76
2022/06/15 04:21:24;;;;;;;0.20;0.20;;;15.10;99.90;15.40;101640.00;;;;5094668;28;20215;-76
2022/06/15 04:24:21;;;;;;;0.30;0.30;;;15.10;99.90;15.40;101593.00;;;;5095906;28;20187;-76
2022/06/15 04:27:08;;;;;;;0.30;0.30;;;15.30;99.90;15.80;101649.00;;;;5077550;28;20214;-76
2022/06/15 04:29:53;;;;;;;0.40;0.40;;;15.60;99.90;16.10;101649.00;;;;5093638;28;20283;-76
2022/06/15 04:32:56;;;;;;;0.20;0.20;;;16.10;99.90;17.90;101583.00;;;;5093631;28;20224;-76
2022/06/15 04:35:47;;;;;;;2.17;0.97;;;16.90;99.90;16.30;101638.00;;;;5094028;28;20221;-75
2022/06/15 04:38:38;;;;;;;0.10;0.10;;;16.80;99.90;17.50;101661.00;;;;5094260;28;20169;-77
2022/06/15 04:41:24;;;;;;;0.20;0.20;;;17.20;99.90;19.10;101661.00;;;;5094167;28;20207;-76
2022/06/15 04:44:12;;;;;;;0.10;0.10;;;18.20;99.90;19.60;101727.00;;;;5077014;28;20272;-76
2022/06/15 04:47:01;;;;;;;0.10;0.10;;;19.10;99.90;20.20;101720.00;;;;5077034;28;20177;-76
2022/06/15 04:50:04;;;;;;;0.20;0.20;;;19.30;99.90;19.90;101734.00;;;;5077537;28;20620;-76
2022/06/15 04:53:08;;;;;;;0.40;0.40;;;19.30;99.90;19.50;101744.00;;;;5093312;28;20262;-76
2022/06/15 04:55:42;;;;;;;0.10;0.10;;;19.50;99.90;21.00;101697.00;;;;5078494;28;20177;-75
2022/06/15 04:58:43;;;;;;;0.17;0.17;;;19.80;99.90;21.90;101751.00;;;;5094554;28;20281;-77
2022/06/15 05:01:40;;;;;;;0.22;0.22;;;20.90;99.90;20.60;101740.00;;;;5093586;28;20194;-76
2022/06/15 05:04:42;;;;;;;1.05;0.93;;;20.80;99.90;19.60;101739.00;;;;5070448;28;20200;-75
2022/06/15 05:07:17;;;;;;;0.30;0.30;;;19.80;99.90;18.80;101737.00;;;;5093183;28;20185;-75
2022/06/15 05:09:58;;;;;;;4.80;1.17;;;19.40;99.90;19.30;101720.00;;;;5076793;28;20176;-75
2022/06/15 05:12:47;;;;;;;0.35;0.35;;;19.00;99.90;20.00;101748.00;;;;5076815;28;20739;-75
2022/06/15 05:15:33;;;;;;;0.10;0.10;;;20.00;99.90;22.00;101781.00;;;;5076337;28;20665;-76
2022/06/15 05:18:32;;;;;;;0.73;0.73;;;20.50;99.90;22.40;101789.00;;;;5094814;28;20172;-75
2022/06/15 05:21:16;;;;;;;0.20;0.20;;;21.40;99.90;22.40;101794.00;;;;5093320;28;20180;-76
2022/06/15 05:24:09;;;;;;;0.20;0.20;;;22.00;99.90;23.20;101801.00;;;;5093062;28;20670;-75
2022/06/15 05:26:55;;;;;;;0.38;0.38;;;22.30;99.90;24.80;101792.00;;;;5093297;28;20169;-75
2022/06/15 05:29:49;;;;;;;0.10;0.10;;;23.10;99.90;24.60;101823.00;;;;5076113;28;20176;-76
2022/06/15 05:32:50;;;;;;;0.22;0.22;;;23.30;99.90;23.70;101817.00;;;;5075865;28;20580;-76
2022/06/15 05:35:41;;;;;;;0.28;0.28;;;22.90;99.90;22.30;101772.00;;;;5093361;28;20662;-75
2022/06/15 05:38:32;;;;;;;0.20;0.20;;;23.00;99.90;24.00;101819.00;;;;5093110;28;20374;-75
2022/06/15 05:41:15;;;;;;;0.20;0.20;;;22.90;99.90;21.60;101802.00;;;;5089908;28;20271;-75
2022/06/15 05:44:48;;;;;;;0.20;0.20;;;22.50;99.90;22.90;101812.00;;;;5076106;28;20191;-75
2022/06/15 05:47:17;;;;;;;2.63;1.25;;;22.30;99.90;21.20;101812.00;;;;5078897;28;20281;-75
2022/06/15 05:50:05;;;;;;;0.10;0.10;;;22.40;99.90;20.40;101799.00;;;;5075781;28;20181;-74
2022/06/15 05:52:49;;;;;;;1.38;1.17;;;20.70;99.90;20.60;101767.00;;;;5092540;28;20199;-75
2022/06/15 05:55:42;;;;;;;0.13;0.13;;;20.90;99.90;23.30;101813.00;;;;5092677;28;20275;-75
2022/06/15 05:58:33;;;;;;;0.10;0.10;;;21.70;99.90;24.90;101828.00;;;;5093136;28;20169;-75
2022/06/15 06:01:55;;;;;;;0.30;0.30;;;23.70;99.90;24.10;101840.00;;;;5075465;28;20249;-75
2022/06/15 06:04:46;;;;;;;0.95;0.95;;;23.80;99.90;18.80;101769.00;;;;5074493;28;20203;-74
2022/06/15 06:07:23;;;;;;;0.25;0.25;;;20.40;99.90;21.50;101811.00;;;;5075645;28;20286;-75
2022/06/15 06:10:02;;;;;;;0.50;0.50;;;20.50;99.90;22.00;101810.00;;;;5075696;28;20527;-75
2022/06/15 06:12:49;;;;;;;0.10;0.10;;;21.40;99.90;24.50;101842.00;;;;5092311;28;20666;-75
2022/06/15 06:15:38;;;;;;;0.10;0.10;;;23.10;99.90;26.70;101850.00;;;;5075688;28;20627;-76
2022/06/15 06:18:29;;;;;;;0.40;0.38;;;24.60;99.90;28.20;101834.00;;;;5060252;28;20197;-75
2022/06/15 06:21:10;;;;;;;0.30;0.30;;;26.30;99.90;27.30;101836.00;;;;5075509;28;20195;-76
2022/06/15 06:23:56;;;;;;;0.30;0.30;;;26.40;99.90;23.90;101846.00;;;;5075360;28;20173;-75
2022/06/15 06:26:36;;;;;;;1.30;0.57;;;24.40;99.90;23.70;101831.00;;;;5075325;28;20269;-76
2022/06/15 06:29:33;;;;;;;0.50;0.50;;;24.10;99.90;21.60;101832.00;;;;5092170;28;20189;-75
2022/06/15 06:32:22;;;;;;;0.10;0.10;;;22.20;99.90;24.60;101837.00;;;;5075277;28;20594;-75
2022/06/15 06:35:13;;;;;;;0.10;0.10;;;23.30;99.90;27.40;101840.00;;;;5075322;28;20192;-76
2022/06/15 06:38:16;;;;;;;0.40;0.40;;;25.10;99.90;27.70;101838.00;;;;5092400;28;20185;-76
2022/06/15 06:41:02;;;;;;;0.10;0.10;;;25.90;99.90;28.00;101826.00;;;;5075100;28;20208;-75
2022/06/15 06:43:59;;;;;;;0.20;0.20;;;26.60;99.90;26.00;101826.00;;;;5092051;28;20181;-76
2022/06/15 06:46:48;;;;;;;0.22;0.22;;;26.90;99.90;23.70;101851.00;;;;5075173;28;20245;-75
2022/06/15 06:49:50;;;;;;;2.22;2.13;;;24.90;99.90;22.00;101838.00;;;;5092103;28;20256;-75
2022/06/15 06:52:35;;;;;;;1.77;1.67;;;22.90;99.90;24.60;101846.00;;;;5075165;28;20203;-76
2022/06/15 06:55:09;;;;;;;0.40;0.40;;;23.50;99.90;26.50;101837.00;;;;5079162;28;20528;-76
2022/06/15 06:58:02;;;;;;;0.10;0.10;;;24.90;99.90;26.80;101847.00;;;;5079524;28;20674;-75
2022/06/15 07:00:50;;;;;;;0.30;0.30;;;26.20;99.90;23.40;101857.00;;;;5079123;28;20192;-75
2022/06/15 07:03:44;;;;;;;4.18;2.67;;;24.00;99.90;22.40;101854.00;;;;5096083;28;20229;-75
2022/06/15 07:06:27;;;;;;;0.38;0.38;;;22.90;99.90;22.60;101857.00;;;;5096575;28;20203;-75
2022/06/15 07:09:01;;;;;;;0.40;0.40;;;22.60;99.90;23.40;101845.00;;;;5079000;28;20173;-75
2022/06/15 07:11:50;;;;;;;0.93;0.93;;;22.90;99.90;23.90;101869.00;;;;5095156;28;20573;-75
2022/06/15 07:14:53;;;;;;;0.38;0.38;;;23.70;99.90;27.10;101870.00;;;;5079009;28;20628;-75
2022/06/15 07:17:40;;;;;;;0.10;0.10;;;25.00;99.90;27.00;101881.00;;;;5078994;28;20177;-76
2022/06/15 07:20:41;;;;;;;0.75;0.75;;;25.90;99.90;24.20;101870.00;;;;5078745;28;20227;-75
2022/06/15 07:23:27;;;;;;;1.98;0.65;;;24.30;99.90;23.90;101870.00;;;;5095522;28;20176;-75
2022/06/15 07:26:18;;;;;;;0.10;0.10;;;23.90;99.90;26.70;101887.00;;;;5078465;28;20177;-75
2022/06/15 07:29:01;;;;;;;0.40;0.40;;;25.30;99.90;28.10;101874.00;;;;5078546;28;20177;-75
2022/06/15 07:32:03;;;;;;;0.52;0.52;;;26.50;99.90;27.30;101856.00;;;;5078517;28;20215;-76
2022/06/15 07:34:48;;;;;;;0.20;0.20;;;27.20;99.90;26.30;101857.00;;;;5078338;28;20184;-75
2022/06/15 07:37:50;;;;;;;0.30;0.30;;;26.30;99.90;27.90;101859.00;;;;5078405;28;20181;-75
2022/06/15 07:40:42;;;;;;;0.35;0.35;;;26.80;99.90;24.90;101852.00;;;;5095085;28;20646;-75
2022/06/15 07:43:28;;;;;;;0.22;0.22;;;25.60;99.90;25.60;101882.00;;;;5078184;28;20188;-75
2022/06/15 07:46:15;;;;;;;0.10;0.10;;;25.20;99.90;26.70;101863.00;;;;5078335;28;20189;-75
2022/06/15 07:51:29;;;;;;;1.10;0.77;;;26.80;99.90;28.40;101814.00;;;;5095071;28;20239;-75
2022/06/15 07:54:12;;;;;;;1.75;1.65;;;28.20;99.90;26.90;101847.00;;;;5078708;28;20220;-75
2022/06/15 07:56:46;;;;;;;0.10;0.10;;;27.60;99.90;28.00;101821.00;;;;5078073;28;20257;-75
2022/06/15 07:59:15;;;;;;;0.38;0.38;;;27.40;99.90;26.70;101856.00;;;;5095428;28;20650;-75
2022/06/15 08:01:59;;;;;;;0.22;0.22;;;26.90;99.90;25.40;101834.00;;;;5077916;28;20279;-75
2022/06/15 08:04:48;;;;;;;0.25;0.25;;;26.20;99.90;26.60;101876.00;;;;5094614;28;20525;-75
2022/06/15 08:07:19;;;;;;;0.55;0.55;;;26.10;99.90;28.10;101843.00;;;;5111957;28;20188;-75
2022/06/15 08:09:45;;;;;;;0.70;0.70;;;26.90;99.90;26.50;101822.00;;;;5094650;28;20195;-75
2022/06/15 08:12:19;;;;;;;0.10;0.10;;;27.00;99.70;28.40;101863.00;;;;5077415;28;20572;-74
2022/06/15 08:14:54;;;;;;;0.10;0.10;;;27.30;99.90;30.00;101845.00;;;;5078512;28;20185;-75
2022/06/15 08:18:06;;;;;;;0.30;0.30;;;28.60;99.50;30.20;101816.00;;;;5077816;28;20181;-75
2022/06/15 08:20:48;;;;;;;0.68;0.68;;;29.00;97.30;26.30;101819.00;;;;5057509;28;20192;-75
2022/06/15 08:23:27;;;;;;;1.20;0.80;;;27.70;95.80;25.40;101855.00;;;;5077640;28;20173;-74
2022/06/15 08:26:07;;;;;;;0.47;0.47;;;26.50;96.70;24.30;101870.00;;;;5094328;28;20200;-74
2022/06/15 08:28:58;;;;;;;0.20;0.20;;;25.00;98.50;24.10;101879.00;;;;5077398;28;20215;-74
2022/06/15 08:31:26;;;;;;;1.23;0.65;;;24.30;99.60;25.10;101874.00;;;;5093924;28;20680;-74
2022/06/15 08:33:59;;;;;;;1.25;0.90;;;24.60;99.00;24.80;101842.00;;;;5077359;28;20184;-74
2022/06/15 08:36:33;;;;;;;1.17;1.17;;;25.30;98.90;25.70;101872.00;;;;5094202;28;20173;-74
2022/06/15 08:39:09;;;;;;;0.45;0.45;;;25.70;98.60;25.10;101863.00;;;;5077066;28;20192;-74
2022/06/15 08:41:43;;;;;;;0.63;0.63;;;25.90;97.80;25.00;101836.00;;;;5077482;28;20181;-75
2022/06/15 08:44:49;;;;;;;0.47;0.47;;;25.50;98.60;25.40;101874.00;;;;5093695;28;20193;-74
2022/06/15 08:47:47;;;;;;;0.65;0.65;;;25.30;98.20;27.10;101837.00;;;;5094982;28;20200;-74
2022/06/15 08:50:34;;;;;;;0.82;0.70;;;26.00;97.90;27.00;101850.00;;;;5094272;28;20184;-74
2022/06/15 08:53:32;;;;;;;0.30;0.30;;;26.80;97.20;29.60;101838.00;;;;5076685;28;20627;-74
2022/06/15 08:56:10;;;;;;;0.30;0.30;;;28.00;96.50;29.10;101809.00;;;;5093838;28;20185;-74
2022/06/15 08:59:33;;;;;;;0.88;0.85;;;28.50;94.50;27.20;101844.00;;;;5093684;28;20620;-74
2022/06/15 09:02:21;;;;;;;0.30;0.30;;;27.10;96.30;27.10;101855.00;;;;5062482;28;20682;-74
2022/06/15 09:05:10;;;;;;;0.28;0.20;;;26.30;96.70;27.00;101829.00;;;;5093683;28;20313;-74
2022/06/15 09:07:51;;;;;;;1.42;0.45;;;26.90;95.70;26.90;101835.00;;;;5092976;28;20191;-74
2022/06/15 09:10:38;;;;;;;0.35;0.32;;;27.10;95.00;26.40;101822.00;;;;5093867;28;20576;-75
2022/06/15 09:13:26;;;;;;;0.20;0.20;;;26.40;95.20;25.70;101820.00;;;;5094408;28;20200;-74
2022/06/15 09:16:44;;;;;;;0.73;0.57;;;26.00;96.20;25.10;101858.00;;;;5092738;28;20215;-74
2022/06/15 09:19:23;;;;;;;0.20;0.20;;;25.40;95.30;25.50;101862.00;;;;5094677;28;20183;-74
2022/06/15 09:22:02;;;;;;;0.20;0.20;;;25.30;96.20;27.60;101874.00;;;;5076279;28;20181;-75
2022/06/15 09:24:52;;;;;;;0.10;0.10;;;26.70;96.10;27.00;101849.00;;;;5093133;28;20212;-75
2022/06/15 09:27:54;;;;;;;0.95;0.95;;;27.00;95.60;29.00;101826.00;;;;5093403;28;20183;-75
2022/06/15 09:30:42;;;;;;;0.10;0.10;;;28.00;95.60;26.80;101835.00;;;;5094033;28;20623;-74
2022/06/15 09:33:28;;;;;;;0.10;0.10;;;26.90;95.20;29.20;101852.00;;;;5093098;28;20596;-74
2022/06/15 09:36:11;;;;;;;1.92;1.70;;;28.20;94.50;26.10;101851.00;;;;5092852;28;20175;-74
2022/06/15 09:38:42;;;;;;;0.15;0.15;;;27.50;92.50;28.10;101820.00;;;;5076001;28;20185;-75
2022/06/15 09:41:54;;;;;;;2.63;0.40;;;27.30;94.00;28.30;101840.00;;;;5076472;28;20193;-75
2022/06/15 09:44:42;;;;;;;0.17;0.17;;;27.60;94.00;27.60;101844.00;;;;5094016;28;20662;-75
2022/06/15 09:47:41;;;;;;;0.50;0.50;;;27.80;93.80;28.50;101833.00;;;;5094462;28;20185;-74
2022/06/15 09:50:43;;;;;;;0.25;0.25;;;28.20;93.00;29.30;101846.00;;;;5092660;28;20223;-75
2022/06/15 09:53:28;;;;;;;7.78;1.15;;;28.30;93.10;28.70;101834.00;;;;5092643;28;20204;-72
2022/06/15 09:56:09;;;;;;;0.47;0.47;;;28.40;92.90;27.30;101849.00;;;;5093908;28;20306;-72
2022/06/15 09:58:50;;;;;;;0.43;0.43;;;27.60;93.90;28.50;101844.00;;;;5075430;28;20639;-72
2022/06/15 10:01:30;;;;;;;0.30;0.30;;;27.90;93.70;28.40;101813.00;;;;5092864;28;20185;-72
2022/06/15 10:04:03;;;;;;;1.00;0.90;;;27.90;93.00;28.60;101842.00;;;;5092492;28;20180;-72
2022/06/15 10:07:11;;;;;;;6.35;1.45;;;28.50;92.60;30.30;101833.00;;;;5092264;28;20179;-73
2022/06/15 10:09:47;;;;;;;0.10;0.10;;;29.20;92.50;30.70;101832.00;;;;5012064;28;20199;-73
2022/06/15 10:15:42;;;;;;;0.50;0.50;;;30.00;91.20;29.00;101844.00;;;;5070051;28;20196;-72
2022/06/15 10:18:46;;;;;;;0.10;0.10;;;29.30;90.50;29.40;101810.00;;;;5062003;28;20189;-72
2022/06/15 10:33:41;;;;;;;0.15;0.15;;;27.50;91.90;29.50;101842.00;;;;5112683;27;1348681;-75
2022/06/15 10:36:48;;;;;;;0.25;0.25;;;28.40;92.00;28.90;101843.00;;;;5113002;28;20539;-73
2022/06/15 10:39:28;;;;;;;0.10;0.10;;;28.90;90.90;29.20;101835.00;;;;5117638;28;20721;-73
2022/06/15 10:42:08;;;;;;;0.15;0.15;;;28.70;91.10;30.80;101838.00;;;;5130493;28;20179;-73
2022/06/15 10:45:21;;;;;;;0.30;0.30;;;29.60;90.90;31.60;101827.00;;;;5131559;28;20201;-73
2022/06/15 10:48:13;;;;;;;0.50;0.50;;;30.40;90.60;31.30;101823.00;;;;5131418;27;20175;-73
2022/06/15 10:51:05;;;;;;;0.10;0.10;;;30.80;87.60;31.20;101801.00;;;;5112906;28;20305;-73
2022/06/15 10:54:20;;;;;;;1.23;1.17;;;31.20;87.10;31.90;101816.00;;;;5130129;28;20218;-74
2022/06/15 11:02:33;;;;;;;6.03;1.48;;;31.60;84.80;29.50;101824.00;;;;5128290;27;20248;-73
2022/06/15 11:05:32;;;;;;;0.10;0.10;;;30.60;85.10;32.30;101802.00;;;;5129599;28;20183;-73
2022/06/15 11:08:17;;;;;;;2.40;1.10;;;31.30;85.20;33.60;101785.00;;;;5106532;28;20199;-73
2022/06/15 11:10:52;;;;;;;1.00;1.00;;;32.40;83.50;29.30;101793.00;;;;5112448;28;20225;-73
2022/06/15 11:13:43;;;;;;;0.43;0.43;;;30.50;85.00;30.00;101800.00;;;;5113019;28;20705;-73
2022/06/15 11:19:58;;;;;;;0.30;0.30;;;30.80;84.40;31.10;101774.00;;;;5093064;28;20182;-74
2022/06/15 11:22:46;;;;;;;0.20;0.20;;;30.50;85.10;32.90;101771.00;;;;5129799;28;20248;-74
2022/06/15 11:25:45;;;;;;;0.10;0.10;;;31.60;83.50;29.80;101801.00;;;;5129837;28;20210;-73
2022/06/15 11:28:37;;;;;;;0.77;0.77;;;30.70;83.90;30.40;101807.00;;;;5113081;28;20199;-73
2022/06/15 11:31:21;;;;;;;0.10;0.10;;;30.40;84.30;31.70;101775.00;;;;5112239;28;20206;-75
2022/06/15 11:34:02;;;;;;;0.38;0.38;;;31.40;83.30;31.30;101788.00;;;;5129437;28;20183;-74
2022/06/15 11:37:01;;;;;;;0.20;0.20;;;31.60;83.90;31.10;101791.00;;;;5112343;28;20540;-74
2022/06/15 11:39:45;;;;;;;0.10;0.10;;;31.50;82.40;31.20;101783.00;;;;5106176;28;20271;-74
2022/06/15 11:42:22;;;;;;;0.10;0.10;;;31.20;83.10;32.10;101768.00;;;;5129319;28;20316;-74
2022/06/15 11:44:59;;;;;;;0.20;0.20;;;32.10;81.50;31.70;101783.00;;;;5115041;28;20635;-74
2022/06/15 11:47:48;;;;;;;0.10;0.10;;;32.00;82.20;30.50;101787.00;;;;5099018;28;20171;-74
2022/06/15 11:50:48;;;;;;;0.45;0.45;;;30.60;83.70;32.40;101759.00;;;;5116972;28;20180;-75
2022/06/15 11:53:29;;;;;;;0.17;0.17;;;31.10;83.30;32.30;101787.00;;;;5115307;28;20176;-74
2022/06/15 11:56:05;;;;;;;0.35;0.35;;;31.30;81.90;31.30;101785.00;;;;5115187;28;20180;-74
2022/06/15 11:59:03;;;;;;;0.10;0.10;;;31.20;81.40;30.60;101798.00;;;;5115390;28;20715;-74
2022/06/15 12:02:07;;;;;;;0.10;0.10;;;30.20;81.70;30.90;101785.00;;;;5097944;28;20184;-74
2022/06/15 12:05:07;;;;;;;0.30;0.30;;;30.00;84.30;31.20;101786.00;;;;5098391;28;20188;-74
2022/06/15 12:08:11;;;;;;;0.90;0.90;;;30.40;83.90;28.00;101800.00;;;;5116108;28;20272;-74
2022/06/15 12:10:58;;;;;;;0.98;0.50;;;28.90;83.80;28.60;101788.00;;;;5068754;28;20621;-74
2022/06/15 12:13:58;;;;;;;0.22;0.22;;;28.50;84.10;29.50;101773.00;;;;5114852;28;20202;-74
2022/06/15 12:16:44;;;;;;;0.22;0.22;;;28.50;85.90;29.40;101791.00;;;;5097356;28;20214;-74
2022/06/15 12:19:19;;;;;;;0.85;0.85;;;28.50;85.30;26.20;101786.00;;;;5074069;28;20252;-73
2022/06/15 12:22:09;;;;;;;0.80;0.43;;;27.20;86.10;27.60;101765.00;;;;5114669;28;20554;-74
2022/06/15 12:24:49;;;;;;;0.13;0.13;;;27.00;88.80;28.50;101784.00;;;;5097660;28;20176;-73
2022/06/15 12:27:37;;;;;;;0.20;0.20;;;27.60;87.80;27.80;101789.00;;;;5097660;28;20179;-73
2022/06/15 12:30:33;;;;;;;2.15;0.98;;;27.50;87.20;28.50;101749.00;;;;5097302;28;20224;-74
2022/06/15 12:33:20;;;;;;;0.43;0.40;;;27.60;88.50;27.70;101792.00;;;;5115253;28;20231;-74
2022/06/15 12:36:12;;;;;;;0.20;0.20;;;27.50;88.70;26.60;101792.00;;;;5114435;28;20184;-73
2022/06/15 12:39:10;;;;;;;0.20;0.20;;;26.70;88.90;27.50;101762.00;;;;5114396;28;20228;-74
2022/06/15 12:42:17;;;;;;;0.65;0.65;;;26.70;89.70;27.70;101756.00;;;;5098096;28;20194;-73
2022/06/15 12:45:06;;;;;;;0.40;0.40;;;26.90;88.40;27.60;101801.00;;;;5099699;28;20226;-74
2022/06/15 12:47:55;;;;;;;0.10;0.10;;;27.10;88.50;27.90;101769.00;;;;5097235;28;20188;-73
2022/06/15 12:50:38;;;;;;;0.30;0.30;;;27.00;88.20;27.90;101792.00;;;;5097975;28;20520;-73
2022/06/15 12:53:30;;;;;;;0.20;0.20;;;27.30;87.00;27.90;101757.00;;;;5097247;28;20215;-74
2022/06/15 12:56:30;;;;;;;0.10;0.10;;;27.00;86.10;28.10;101772.00;;;;5114173;28;20577;-74